Albersroda, Germany

8:48 AM CEST on March 26, 2017 (GMT +0200)
Steigra | | Change Station

Elev 0 ft 51.30 °N, 11.71 °E | Updated 11 minutes ago

Partly Cloudy
Partly Cloudy
33.4 °F
Feels Like 33 °F
N
1.2
Wind Variable Wind from North
Gusts 2.5 mph

Today
High -- | Low -- °F
--% Chance of Precip.
Yesterday
High -- | Low -- °F
Precip. -- in
Pressure 30.27 in
Visibility -9999.0 miles
Clouds
Windchill 33 °F
Dew Point 32 °F
Humidity 94%
Rainfall 0.00 in
Snow Depth Not available.
7:02 AM 7:36 PM
Waning Crescent, 4% visible
METAR EDDP 260620Z 07005KT CAVOK 02/01 Q1025 NOSIG
Pressure 30.27 in
Visibility -9999.0 miles
Clouds
Windchill 33 °F
Dew Point 32 °F
Humidity 94%
Rainfall 0.00 in
Snow Depth Not available.
7:02 AM 7:36 PM
Waning Crescent, 4% visible
METAR EDDP 260620Z 07005KT CAVOK 02/01 Q1025 NOSIG

Get Severe Weather Alerts

Thanks for signing up!

Be on the lookout for a verification email in your inbox.

You'll start receiving the daily forecast at 8 AM.

×

10-Day Weather Forecast

×

Almanac

Astronomy

Mar. 26, 2017 Rise Set
Actual Time
Civil Twilight
Nautical Twilight
Astronomical Twilight
Moon
Length of Visible Light
Length of Day
Tomorrow will be .
, % of the Moon is Illuminated

Today's Extremes

Country Highs Country Lows

Community

WunderPhotos

Upload Photos

1,962,540 photos uploaded!

WunderBlog® & News

Nearby

Air Quality

  Air Quality AQ Index Pollutant
Not available.

Snow Depth

Station Depth Elevation

Earthquake Activity

City Distance Mag. Time & Date
Minimum magnitude displayed is 2.5.

Earthquake Activity

City Distance Mag. Time & Date
Minimum magnitude displayed is 2.5.

Coastal Water Temperatures

Place Temperature

Stations

Nearby Weather Stations

Station Location Temp. Windchill Dew Point Humidity Wind Precip. Elev Updated Type